Time;durP1;ratioP1;P1;durP2;ratioP2;P2;SDS_P1;SDS_P2;PMS_P1;PMS_P2;Temp;Humidity;BMP_temperature;BMP_pressure;BME280_temperature;BME280_humidity;BME280_pressure;Samples;Min_cycle;Max_cycle;Signal;HPM_P1;HPM_P2
2021/04/07 00:01:50;;;;;;;4.13;1.02;;;-0.50;99.90;;;;;;5086766;28;20141;-77
2021/04/07 00:04:16;;;;;;;5.15;1.25;;;-0.50;99.90;;;;;;5068838;28;20031;-77
2021/04/07 00:06:41;;;;;;;6.32;1.45;;;-0.60;99.90;;;;;;5068552;28;20029;-78
2021/04/07 00:09:08;;;;;;;3.67;1.30;;;-0.60;99.90;;;;;;5073592;28;20032;-78
2021/04/07 00:11:34;;;;;;;3.78;1.38;;;-0.60;99.90;;;;;;5075817;28;20512;-78
2021/04/07 00:14:02;;;;;;;4.43;1.50;;;-0.60;99.90;;;;;;5068652;28;20056;-78
2021/04/07 00:16:31;;;;;;;5.70;1.95;;;-0.60;99.90;;;;;;5068275;28;20024;-77
2021/04/07 00:18:56;;;;;;;4.00;1.10;;;-0.60;99.90;;;;;;5074581;28;20034;-77
2021/04/07 00:21:22;;;;;;;5.68;1.27;;;-0.60;99.90;;;;;;5087681;28;20526;-77
2021/04/07 00:23:48;;;;;;;4.93;1.55;;;-0.60;99.90;;;;;;5074809;28;20116;-77
2021/04/07 00:26:14;;;;;;;5.47;1.55;;;-0.70;99.90;;;;;;5076979;28;20116;-77
2021/04/07 00:28:40;;;;;;;4.85;1.45;;;-0.70;99.90;;;;;;5302248;22;20131;-56
2021/04/07 00:31:05;;;;;;;5.00;1.60;;;-0.70;99.90;;;;;;5049145;28;20021;-56
2021/04/07 00:33:31;;;;;;;7.15;1.58;;;-0.70;99.90;;;;;;5048807;28;20017;-55
2021/04/07 00:35:56;;;;;;;4.30;1.45;;;-0.70;99.90;;;;;;5046134;28;20028;-56
2021/04/07 00:38:22;;;;;;;4.95;1.38;;;-0.80;99.90;;;;;;5023439;28;20033;-56
2021/04/07 00:40:48;;;;;;;5.50;1.10;;;-0.70;99.90;;;;;;5048465;28;20032;-56
2021/04/07 00:43:13;;;;;;;7.38;1.52;;;-0.70;99.90;;;;;;5048050;28;20025;-56
2021/04/07 00:45:39;;;;;;;4.25;1.33;;;-0.70;99.90;;;;;;5048548;28;20096;-57
2021/04/07 00:48:05;;;;;;;4.47;1.52;;;-0.70;99.90;;;;;;5048793;28;20025;-56
2021/04/07 00:50:32;;;;;;;8.40;2.15;;;-0.70;99.90;;;;;;5030564;28;20079;-58
2021/04/07 00:52:58;;;;;;;4.80;1.45;;;-0.70;99.90;;;;;;5033285;28;20021;-56
2021/04/07 00:55:29;;;;;;;3.78;1.15;;;-0.70;99.90;;;;;;5047317;28;20537;-55
2021/04/07 00:57:56;;;;;;;6.82;1.92;;;-0.80;99.90;;;;;;5047885;28;20903;-55
2021/04/07 01:00:22;;;;;;;6.88;1.90;;;-0.80;99.90;;;;;;5040262;28;20043;-57
2021/04/07 01:02:56;;;;;;;7.85;1.77;;;-0.80;99.90;;;;;;5045184;28;20716;-55
2021/04/07 01:05:23;;;;;;;4.53;1.13;;;-0.70;99.90;;;;;;5046677;28;20072;-56
2021/04/07 01:07:49;;;;;;;6.38;1.30;;;-0.70;99.90;;;;;;5047574;28;20036;-55
2021/04/07 01:10:15;;;;;;;7.90;1.17;;;-0.70;99.90;;;;;;5047551;28;20769;-57
2021/04/07 01:12:43;;;;;;;9.57;1.88;;;-0.70;99.90;;;;;;5048389;28;20055;-55
2021/04/07 01:15:09;;;;;;;5.35;1.88;;;-0.70;99.90;;;;;;5048357;28;20033;-56
2021/04/07 01:17:35;;;;;;;6.15;2.28;;;-0.70;99.90;;;;;;5047292;28;20025;-57
2021/04/07 01:20:04;;;;;;;6.32;1.77;;;-0.70;99.90;;;;;;5048013;28;20013;-55
2021/04/07 01:22:32;;;;;;;5.35;1.95;;;-0.70;99.90;;;;;;5043015;28;20087;-56
2021/04/07 01:24:58;;;;;;;6.40;1.60;;;-0.70;99.90;;;;;;5048080;28;20021;-56
2021/04/07 01:27:23;;;;;;;5.53;1.35;;;-0.60;99.90;;;;;;5048227;28;20040;-57
2021/04/07 01:29:49;;;;;;;5.10;1.58;;;-0.50;99.90;;;;;;5047520;28;20024;-56
2021/04/07 01:32:14;;;;;;;2.33;1.48;;;-0.50;99.90;;;;;;5047646;28;20399;-57
2021/04/07 01:34:44;;;;;;;7.50;2.10;;;-0.50;99.90;;;;;;5045038;28;20037;-57
2021/04/07 01:37:12;;;;;;;7.85;2.10;;;-0.40;99.90;;;;;;5046025;28;20647;-57
2021/04/07 01:39:38;;;;;;;10.68;2.03;;;-0.40;99.90;;;;;;5047276;28;20021;-58
2021/04/07 01:42:04;;;;;;;4.75;1.35;;;-0.30;99.90;;;;;;5047619;28;20059;-53
2021/04/07 01:44:31;;;;;;;6.72;1.38;;;-0.40;99.90;;;;;;5047429;28;20029;-56
2021/04/07 01:46:58;;;;;;;9.35;2.03;;;-0.30;99.90;;;;;;5033628;28;20021;-56
2021/04/07 01:49:24;;;;;;;11.95;1.85;;;-0.30;99.90;;;;;;5044907;28;20025;-56
2021/04/07 01:51:50;;;;;;;10.15;1.98;;;-0.30;99.90;;;;;;5047092;28;20021;-58
2021/04/07 01:54:15;;;;;;;4.85;1.88;;;-0.30;99.90;;;;;;5029830;28;20039;-56
2021/04/07 01:56:53;;;;;;;5.38;1.13;;;-0.30;99.90;;;;;;5047760;28;20484;-57
2021/04/07 01:59:27;;;;;;;7.63;1.73;;;-0.30;99.90;;;;;;5047478;28;20046;-57
2021/04/07 02:01:54;;;;;;;6.75;1.45;;;-0.20;99.90;;;;;;5029683;28;20025;-57
2021/04/07 02:04:20;;;;;;;4.18;1.70;;;-0.20;99.90;;;;;;5047583;28;20208;-54
2021/04/07 02:06:46;;;;;;;8.23;2.13;;;-0.20;99.90;;;;;;5047640;28;20558;-58
2021/04/07 02:09:13;;;;;;;6.95;1.67;;;-0.20;99.90;;;;;;5047533;28;20076;-57
2021/04/07 02:11:47;;;;;;;4.32;1.45;;;-0.20;99.90;;;;;;5047189;28;20124;-57
2021/04/07 02:14:14;;;;;;;4.88;1.83;;;-0.20;99.90;;;;;;5037390;28;20053;-57
2021/04/07 02:16:40;;;;;;;10.30;2.75;;;-0.20;99.90;;;;;;5043768;28;20029;-56
2021/04/07 02:19:09;;;;;;;4.55;1.80;;;-0.10;99.90;;;;;;5028534;28;20116;-55
2021/04/07 02:21:38;;;;;;;4.88;1.27;;;-0.10;99.90;;;;;;5034622;28;20021;-56
2021/04/07 02:24:04;;;;;;;9.23;1.75;;;-0.10;99.90;;;;;;5035323;28;20076;-56
2021/04/07 02:26:30;;;;;;;7.43;1.35;;;-0.10;99.90;;;;;;5034209;28;20487;-54
2021/04/07 02:28:56;;;;;;;9.50;1.50;;;0.00;99.90;;;;;;5034450;28;20572;-56
2021/04/07 02:31:22;;;;;;;4.35;1.38;;;0.00;99.90;;;;;;5035752;28;20056;-57
2021/04/07 02:33:47;;;;;;;8.55;1.92;;;0.00;99.90;;;;;;5036011;28;20360;-56
2021/04/07 02:36:13;;;;;;;6.32;2.00;;;0.00;99.90;;;;;;5034395;28;20021;-57
2021/04/07 02:38:38;;;;;;;8.60;1.83;;;0.00;99.90;;;;;;5031916;28;20547;-55
2021/04/07 02:41:04;;;;;;;9.35;2.13;;;0.00;99.90;;;;;;5034170;28;20022;-53
2021/04/07 02:43:30;;;;;;;4.85;1.80;;;0.00;99.90;;;;;;5017298;28;20056;-56
2021/04/07 02:45:55;;;;;;;6.50;1.70;;;0.00;99.90;;;;;;5041564;28;20044;-56
2021/04/07 02:48:21;;;;;;;6.55;1.42;;;0.00;99.90;;;;;;5051431;28;20021;-57
2021/04/07 02:50:46;;;;;;;9.52;1.60;;;-0.10;99.90;;;;;;5030893;28;20033;-56
2021/04/07 02:53:12;;;;;;;6.03;1.85;;;0.00;99.90;;;;;;5050344;28;20033;-56
2021/04/07 02:55:38;;;;;;;5.97;2.10;;;-0.10;99.90;;;;;;5049598;28;20571;-57
2021/04/07 02:58:03;;;;;;;7.72;1.77;;;-0.10;99.90;;;;;;5043475;28;20025;-57
2021/04/07 03:00:29;;;;;;;9.43;1.98;;;-0.10;99.90;;;;;;5049900;28;20057;-58
2021/04/07 03:02:54;;;;;;;8.73;1.88;;;-0.10;99.90;;;;;;5051138;28;20036;-55
2021/04/07 03:05:20;;;;;;;7.50;1.90;;;-0.20;99.90;;;;;;5050997;28;20100;-57
2021/04/07 03:07:45;;;;;;;11.35;2.50;;;-0.20;99.90;;;;;;5050670;28;20029;-57
2021/04/07 03:10:12;;;;;;;11.60;2.35;;;-0.10;99.90;;;;;;5042340;28;20026;-55
2021/04/07 03:12:39;;;;;;;6.60;2.35;;;-0.10;99.90;;;;;;5045009;28;20029;-57
2021/04/07 03:15:07;;;;;;;4.93;1.80;;;-0.10;99.90;;;;;;5050495;28;20032;-54
2021/04/07 03:17:32;;;;;;;8.35;2.30;;;-0.10;99.90;;;;;;5050199;28;20032;-55
2021/04/07 03:19:58;;;;;;;11.75;2.40;;;-0.10;99.90;;;;;;5049871;28;20017;-58
2021/04/07 03:22:24;;;;;;;12.15;1.98;;;-0.10;99.90;;;;;;5049221;28;20096;-56
2021/04/07 03:24:49;;;;;;;10.00;2.42;;;-0.10;99.90;;;;;;5048815;28;20183;-55
2021/04/07 03:27:15;;;;;;;7.18;1.90;;;-0.20;99.90;;;;;;5046387;28;20033;-56
2021/04/07 03:29:40;;;;;;;6.55;2.22;;;-0.20;99.90;;;;;;5049371;28;20510;-56
2021/04/07 03:32:06;;;;;;;16.92;2.70;;;-0.20;99.90;;;;;;5049895;28;20038;-57
2021/04/07 03:34:32;;;;;;;10.40;2.38;;;-0.20;99.90;;;;;;5047798;28;20029;-56
2021/04/07 03:36:57;;;;;;;5.45;1.80;;;-0.20;99.90;;;;;;5047981;28;20040;-57
2021/04/07 03:39:23;;;;;;;5.70;1.63;;;-0.20;99.90;;;;;;5050000;28;20075;-57
2021/04/07 03:41:49;;;;;;;8.13;2.25;;;-0.20;99.90;;;;;;5050518;28;20018;-57
2021/04/07 03:44:14;;;;;;;7.97;2.03;;;-0.10;99.90;;;;;;5050150;28;20095;-58
2021/04/07 03:46:40;;;;;;;9.07;2.55;;;-0.20;99.90;;;;;;5049522;28;20029;-54
2021/04/07 03:49:05;;;;;;;13.20;2.67;;;-0.10;99.90;;;;;;5049621;28;20025;-58
2021/04/07 03:51:31;;;;;;;4.82;1.52;;;-0.10;99.90;;;;;;5047488;28;20048;-58
2021/04/07 03:53:57;;;;;;;12.35;2.22;;;-0.10;99.90;;;;;;5050144;28;20028;-57
2021/04/07 03:56:23;;;;;;;5.78;2.22;;;-0.10;99.90;;;;;;5049578;28;20120;-57
2021/04/07 03:58:48;;;;;;;8.52;1.83;;;-0.20;99.90;;;;;;5049790;28;20064;-56
2021/04/07 04:01:14;;;;;;;10.85;2.40;;;-0.20;99.90;;;;;;5031314;28;20522;-56
2021/04/07 04:03:39;;;;;;;6.10;1.58;;;-0.20;99.90;;;;;;5047884;28;20107;-57
2021/04/07 04:06:05;;;;;;;6.95;1.85;;;-0.20;99.90;;;;;;5049765;28;20025;-58
2021/04/07 04:08:31;;;;;;;5.43;1.60;;;-0.30;99.90;;;;;;5049429;28;20029;-57
2021/04/07 04:10:56;;;;;;;7.68;1.58;;;-0.30;99.90;;;;;;5048978;28;20036;-58
2021/04/07 04:13:22;;;;;;;8.55;2.33;;;-0.30;99.90;;;;;;5048651;28;20040;-57
2021/04/07 04:15:48;;;;;;;8.98;2.30;;;-0.30;99.90;;;;;;5033228;28;20108;-57
2021/04/07 04:18:14;;;;;;;7.32;1.95;;;-0.40;99.90;;;;;;5042222;28;20040;-58
2021/04/07 04:20:39;;;;;;;5.53;1.95;;;-0.40;99.90;;;;;;5046815;28;20036;-60
2021/04/07 04:23:05;;;;;;;5.60;1.40;;;-0.40;99.90;;;;;;5048075;28;20104;-57
2021/04/07 04:25:32;;;;;;;12.38;2.20;;;-0.40;99.90;;;;;;5048169;28;20028;-56
2021/04/07 04:27:57;;;;;;;7.53;1.75;;;-0.40;99.90;;;;;;5047754;28;20044;-56
2021/04/07 04:30:25;;;;;;;5.32;1.50;;;-0.50;99.90;;;;;;5030095;28;20453;-57
2021/04/07 04:32:50;;;;;;;7.80;1.77;;;-0.50;99.90;;;;;;5048334;28;20029;-56
2021/04/07 04:35:17;;;;;;;14.23;2.60;;;-0.50;99.90;;;;;;5044911;28;20044;-57
2021/04/07 04:37:42;;;;;;;7.07;1.98;;;-0.50;99.90;;;;;;5048034;28;20043;-58
2021/04/07 04:40:10;;;;;;;7.13;1.85;;;-0.50;99.90;;;;;;5048182;28;20486;-57
2021/04/07 04:42:36;;;;;;;6.55;1.67;;;-0.60;99.90;;;;;;5030679;28;20017;-56
2021/04/07 04:45:03;;;;;;;5.80;1.45;;;-0.60;99.90;;;;;;5045130;28;20025;-57
2021/04/07 04:47:28;;;;;;;4.97;1.42;;;-0.70;99.90;;;;;;5048200;28;20079;-55
2021/04/07 04:49:55;;;;;;;5.28;2.20;;;-0.70;99.90;;;;;;5048010;28;20638;-54
2021/04/07 04:52:21;;;;;;;5.72;1.60;;;-0.70;99.90;;;;;;5047986;28;20086;-57
2021/04/07 04:54:48;;;;;;;5.15;1.83;;;-0.70;99.90;;;;;;5048124;28;20033;-58
2021/04/07 04:57:13;;;;;;;6.82;1.70;;;-0.70;99.90;;;;;;5048287;28;20048;-58
2021/04/07 04:59:39;;;;;;;11.73;2.42;;;-0.80;99.90;;;;;;5047669;28;20049;-57
2021/04/07 05:02:05;;;;;;;8.93;2.50;;;-0.70;99.90;;;;;;5047737;28;20099;-57
2021/04/07 05:04:31;;;;;;;9.07;2.05;;;-0.80;99.90;;;;;;5047924;28;20456;-56
2021/04/07 05:06:57;;;;;;;8.20;1.95;;;-0.70;99.90;;;;;;5047797;28;20040;-56
2021/04/07 05:09:22;;;;;;;8.13;1.65;;;-0.70;99.90;;;;;;5047543;28;20037;-54
2021/04/07 05:11:48;;;;;;;6.55;2.05;;;-0.70;99.90;;;;;;5047387;28;20041;-58
2021/04/07 05:14:13;;;;;;;5.47;1.75;;;-0.70;99.90;;;;;;5029785;28;20072;-58
2021/04/07 05:16:39;;;;;;;9.68;2.42;;;-0.70;99.90;;;;;;5047805;28;20108;-55
2021/04/07 05:19:04;;;;;;;6.82;2.30;;;-0.60;99.90;;;;;;5029728;28;20105;-54
2021/04/07 05:21:30;;;;;;;6.03;1.92;;;-0.60;99.90;;;;;;5047583;28;20021;-58
2021/04/07 05:23:55;;;;;;;10.13;2.90;;;-0.50;99.90;;;;;;5047327;28;20108;-57
2021/04/07 05:26:21;;;;;;;6.32;2.20;;;-0.50;99.90;;;;;;5025795;28;20087;-58
2021/04/07 05:28:47;;;;;;;12.75;2.65;;;-0.40;99.90;;;;;;5030243;28;20384;-58
2021/04/07 05:31:14;;;;;;;4.97;2.25;;;-0.40;99.90;;;;;;5035166;28;20029;-55
2021/04/07 05:33:42;;;;;;;7.13;2.55;;;-0.40;99.90;;;;;;5027592;28;20633;-58
2021/04/07 05:36:10;;;;;;;10.55;2.55;;;-0.30;99.90;;;;;;5031318;28;20074;-58
2021/04/07 05:38:36;;;;;;;5.78;1.75;;;-0.20;99.90;;;;;;5029067;28;20021;-58
2021/04/07 05:41:03;;;;;;;4.43;1.77;;;-0.10;99.90;;;;;;5028777;28;20028;-56
2021/04/07 05:43:29;;;;;;;8.82;2.97;;;0.00;99.90;;;;;;5030212;28;20021;-57
2021/04/07 05:45:55;;;;;;;6.85;3.05;;;0.00;99.90;;;;;;5028804;28;20040;-57
2021/04/07 05:48:20;;;;;;;6.25;2.47;;;0.00;99.90;;;;;;5033210;28;20029;-57
2021/04/07 05:50:48;;;;;;;6.50;2.20;;;0.00;99.90;;;;;;5030275;28;20033;-57
2021/04/07 05:53:14;;;;;;;6.68;2.72;;;0.10;99.90;;;;;;5031585;28;20511;-57
2021/04/07 05:55:49;;;;;;;4.65;2.40;;;0.10;99.90;;;;;;5028007;28;20052;-58
2021/04/07 05:58:15;;;;;;;6.80;1.98;;;0.20;99.90;;;;;;5029954;28;20147;-57
2021/04/07 06:00:41;;;;;;;3.65;2.35;;;0.30;99.90;;;;;;5028602;28;20029;-58
2021/04/07 06:03:08;;;;;;;8.38;2.45;;;0.30;99.90;;;;;;5029921;28;20038;-59
2021/04/07 06:05:42;;;;;;;6.38;2.78;;;0.30;99.90;;;;;;5035962;28;20031;-56
2021/04/07 06:08:08;;;;;;;4.93;1.85;;;0.30;99.90;;;;;;5037780;28;20111;-57
2021/04/07 06:10:37;;;;;;;9.02;2.90;;;0.30;99.90;;;;;;5038484;28;20029;-57
2021/04/07 06:13:03;;;;;;;9.88;2.63;;;0.30;99.90;;;;;;5032111;28;20022;-58
2021/04/07 06:15:29;;;;;;;7.03;2.92;;;0.40;99.90;;;;;;5029099;28;20071;-58
2021/04/07 06:17:57;;;;;;;7.53;2.08;;;0.40;99.90;;;;;;5029223;28;20029;-57
2021/04/07 06:20:24;;;;;;;3.78;2.35;;;0.40;99.90;;;;;;5028028;28;20013;-57
2021/04/07 06:22:50;;;;;;;10.43;2.55;;;0.40;99.90;;;;;;5035857;28;20493;-58
2021/04/07 06:25:16;;;;;;;7.80;2.78;;;0.40;99.90;;;;;;5047887;28;20036;-59
2021/04/07 06:27:42;;;;;;;5.90;1.98;;;0.40;99.90;;;;;;5047197;28;20033;-58
2021/04/07 06:30:08;;;;;;;5.90;2.22;;;0.40;99.90;;;;;;5026645;28;20029;-57
2021/04/07 06:32:34;;;;;;;8.48;2.45;;;0.40;99.90;;;;;;5050807;28;20029;-58
2021/04/07 06:35:00;;;;;;;5.65;1.95;;;0.50;99.90;;;;;;5037827;28;20032;-58
2021/04/07 06:37:25;;;;;;;6.75;2.47;;;0.50;99.90;;;;;;5038018;28;20064;-57
2021/04/07 06:39:51;;;;;;;7.15;2.22;;;0.50;99.90;;;;;;5046865;28;20028;-57
2021/04/07 06:42:18;;;;;;;6.80;2.13;;;0.50;99.90;;;;;;5042840;28;20559;-57
2021/04/07 06:44:44;;;;;;;7.70;2.78;;;0.60;99.90;;;;;;5037343;28;20547;-58
2021/04/07 06:47:11;;;;;;;6.68;2.20;;;0.60;99.90;;;;;;5038038;28;20119;-58
2021/04/07 06:49:40;;;;;;;5.25;2.15;;;0.60;99.90;;;;;;5046962;28;20013;-58
2021/04/07 06:52:09;;;;;;;5.38;2.22;;;0.60;99.90;;;;;;5037664;28;20251;-58
2021/04/07 06:54:36;;;;;;;9.20;1.90;;;0.60;99.90;;;;;;5032313;28;20028;-57
2021/04/07 06:57:02;;;;;;;7.07;2.20;;;0.70;99.90;;;;;;5045992;28;20025;-56
2021/04/07 06:59:30;;;;;;;6.75;2.17;;;0.70;99.90;;;;;;5042974;28;20400;-56
2021/04/07 07:01:55;;;;;;;5.88;2.13;;;0.70;99.90;;;;;;5033015;28;20017;-57
2021/04/07 07:04:21;;;;;;;6.97;2.33;;;0.70;99.90;;;;;;5034318;28;20032;-58
2021/04/07 07:06:52;;;;;;;7.40;2.20;;;0.80;99.90;;;;;;5031458;28;20025;-56
2021/04/07 07:09:18;;;;;;;4.90;2.15;;;0.80;99.90;;;;;;5033476;28;20083;-57
2021/04/07 07:11:49;;;;;;;13.48;2.45;;;0.80;99.90;;;;;;5033962;28;20611;-57
2021/04/07 07:14:16;;;;;;;4.80;1.95;;;0.80;99.90;;;;;;5050924;28;20087;-57
2021/04/07 07:16:46;;;;;;;5.32;2.42;;;0.80;99.90;;;;;;5043592;28;20089;-57
2021/04/07 07:19:26;;;;;;;7.57;2.72;;;0.80;99.90;;;;;;5049499;28;20021;-56
2021/04/07 07:21:57;;;;;;;5.85;2.80;;;0.80;99.90;;;;;;5050117;28;20097;-55
2021/04/07 07:24:31;;;;;;;7.32;2.80;;;0.90;99.90;;;;;;5039355;28;20136;-55
2021/04/07 07:26:58;;;;;;;5.38;2.50;;;0.90;99.90;;;;;;5039990;28;20017;-57
2021/04/07 07:29:30;;;;;;;4.72;2.10;;;0.80;99.90;;;;;;5048835;28;20516;-57
2021/04/07 07:32:03;;;;;;;4.63;2.05;;;0.80;99.90;;;;;;5050840;28;20048;-57
2021/04/07 07:34:30;;;;;;;6.68;2.22;;;0.90;99.90;;;;;;5037693;28;20044;-57
2021/04/07 07:36:57;;;;;;;4.82;1.85;;;0.90;99.90;;;;;;5040025;28;20616;-57
2021/04/07 07:39:25;;;;;;;6.15;2.50;;;0.90;99.90;;;;;;5033113;28;20021;-55
2021/04/07 07:41:52;;;;;;;3.03;2.08;;;0.90;99.90;;;;;;5050264;28;20091;-55
2021/04/07 07:44:19;;;;;;;8.95;1.98;;;1.00;99.90;;;;;;5042571;28;20032;-55
2021/04/07 07:46:47;;;;;;;1.80;1.70;;;1.10;99.90;;;;;;5049702;28;20554;-57
2021/04/07 07:49:17;;;;;;;3.25;1.90;;;1.10;99.90;;;;;;5050168;28;20514;-56
2021/04/07 07:51:45;;;;;;;7.18;1.98;;;1.20;99.90;;;;;;5050373;28;20013;-56
2021/04/07 07:54:17;;;;;;;8.90;2.40;;;1.20;99.90;;;;;;5032468;28;20075;-59
2021/04/07 07:56:43;;;;;;;5.65;2.17;;;1.20;99.90;;;;;;5049720;28;20099;-57
2021/04/07 07:59:08;;;;;;;4.60;2.47;;;1.30;99.90;;;;;;5049613;28;20100;-58
2021/04/07 08:01:44;;;;;;;3.47;2.30;;;1.30;99.90;;;;;;5040560;28;20276;-59
2021/04/07 08:04:10;;;;;;;2.90;1.92;;;1.30;99.90;;;;;;5044205;28;20032;-58
2021/04/07 08:06:36;;;;;;;3.40;2.15;;;1.30;99.90;;;;;;5046086;28;20091;-58
2021/04/07 08:09:04;;;;;;;7.13;2.42;;;1.40;99.90;;;;;;5026431;28;20462;-56
2021/04/07 08:11:29;;;;;;;5.00;2.53;;;1.40;99.90;;;;;;5034554;28;20043;-57
2021/04/07 08:13:55;;;;;;;8.00;2.47;;;1.40;99.90;;;;;;5035827;28;20430;-58
2021/04/07 08:16:22;;;;;;;4.93;2.25;;;1.50;99.90;;;;;;5029481;28;20061;-58
2021/04/07 08:18:49;;;;;;;5.13;2.42;;;1.50;99.90;;;;;;5043034;28;20036;-57
2021/04/07 08:21:20;;;;;;;5.97;2.17;;;1.60;99.90;;;;;;5049443;28;20025;-58
2021/04/07 08:23:52;;;;;;;2.70;1.95;;;1.60;99.90;;;;;;5043430;28;20052;-58
2021/04/07 08:26:20;;;;;;;6.68;1.90;;;1.70;99.90;;;;;;5047717;28;20025;-55
2021/04/07 08:28:46;;;;;;;5.03;1.70;;;1.70;99.90;;;;;;5049016;28;20029;-58
2021/04/07 08:31:17;;;;;;;4.80;2.00;;;1.70;99.90;;;;;;5048543;28;20055;-57
2021/04/07 08:33:47;;;;;;;3.50;2.15;;;1.70;99.90;;;;;;5047553;28;20028;-57
2021/04/07 08:36:16;;;;;;;3.78;2.10;;;1.70;99.90;;;;;;5047054;28;20426;-58
2021/04/07 08:38:42;;;;;;;3.33;2.22;;;1.60;99.90;;;;;;5049119;28;20123;-58
2021/04/07 08:41:18;;;;;;;5.30;2.15;;;1.60;99.90;;;;;;5048524;28;20021;-58
2021/04/07 08:43:44;;;;;;;4.32;1.88;;;1.60;99.90;;;;;;5046163;28;20035;-59
2021/04/07 08:46:12;;;;;;;5.45;2.22;;;1.70;99.90;;;;;;5049080;28;20024;-57
2021/04/07 08:48:38;;;;;;;3.67;1.77;;;1.70;99.90;;;;;;5048971;28;20453;-59
2021/04/07 08:51:05;;;;;;;2.63;1.80;;;1.70;99.90;;;;;;5048792;28;20021;-54
2021/04/07 08:53:33;;;;;;;3.53;2.13;;;1.70;99.90;;;;;;5048703;28;20521;-58
2021/04/07 08:56:05;;;;;;;5.88;1.70;;;1.80;99.90;;;;;;5047834;28;20048;-60
2021/04/07 08:58:30;;;;;;;4.85;2.00;;;1.80;99.90;;;;;;5048657;28;20025;-58
2021/04/07 09:00:57;;;;;;;5.50;2.42;;;1.90;99.90;;;;;;5047989;28;20070;-58
2021/04/07 09:03:31;;;;;;;5.55;1.77;;;1.90;99.90;;;;;;5048198;28;20025;-58
2021/04/07 09:05:57;;;;;;;4.40;2.25;;;1.90;99.90;;;;;;5048763;28;20033;-57
2021/04/07 09:08:27;;;;;;;4.07;2.63;;;1.90;99.90;;;;;;5044750;28;20036;-58
2021/04/07 09:10:57;;;;;;;4.40;1.92;;;1.90;99.90;;;;;;5044602;28;20037;-59
2021/04/07 09:13:28;;;;;;;4.15;1.85;;;2.00;99.90;;;;;;5047145;28;20047;-59
2021/04/07 09:16:03;;;;;;;5.22;2.35;;;2.00;99.90;;;;;;5046846;28;20033;-58
2021/04/07 09:18:38;;;;;;;4.47;2.35;;;2.10;99.90;;;;;;5048081;28;20021;-59
2021/04/07 09:21:06;;;;;;;5.57;2.00;;;2.10;99.90;;;;;;5042986;28;20126;-58
2021/04/07 09:23:33;;;;;;;2.25;2.00;;;2.10;99.90;;;;;;5047797;28;20450;-57
2021/04/07 09:26:18;;;;;;;2.75;2.00;;;2.10;99.90;;;;;;5048211;28;20025;-59
2021/04/07 09:28:51;;;;;;;3.67;2.13;;;2.20;99.90;;;;;;5048060;28;20055;-59
2021/04/07 09:31:27;;;;;;;6.47;3.10;;;2.20;99.90;;;;;;5047894;28;20033;-58
2021/04/07 09:33:56;;;;;;;3.23;2.23;;;2.20;99.90;;;;;;5049461;28;20024;-57
2021/04/07 09:36:35;;;;;;;5.28;2.50;;;2.20;99.90;;;;;;5048033;28;20311;-58
2021/04/07 09:39:10;;;;;;;5.18;2.17;;;2.30;99.90;;;;;;5047995;28;20025;-58
2021/04/07 09:41:40;;;;;;;5.43;2.35;;;2.30;99.90;;;;;;5045082;28;20278;-60
2021/04/07 09:44:08;;;;;;;3.42;2.10;;;2.40;99.90;;;;;;5044637;28;20104;-59
2021/04/07 09:46:35;;;;;;;5.65;1.90;;;2.40;99.90;;;;;;5030235;28;20175;-54
2021/04/07 09:49:08;;;;;;;3.47;2.10;;;2.40;99.90;;;;;;5047473;28;20491;-59
2021/04/07 09:51:38;;;;;;;5.22;2.50;;;2.50;99.90;;;;;;5047678;28;20025;-58
2021/04/07 09:54:19;;;;;;;3.17;2.30;;;2.50;99.90;;;;;;5047733;28;20545;-57
2021/04/07 09:56:45;;;;;;;5.80;2.53;;;2.50;99.90;;;;;;5045911;28;20108;-56
2021/04/07 09:59:11;;;;;;;5.60;2.70;;;2.60;99.90;;;;;;5047664;28;20102;-56
2021/04/07 10:01:40;;;;;;;3.83;2.35;;;2.80;99.90;;;;;;5047270;28;20071;-58
2021/04/07 10:04:06;;;;;;;5.60;2.95;;;2.90;99.90;;;;;;5039700;28;20617;-53
2021/04/07 10:06:32;;;;;;;4.43;2.30;;;3.00;99.90;;;;;;5044547;28;20028;-53
2021/04/07 10:09:08;;;;;;;3.55;2.15;;;3.20;99.90;;;;;;5045265;28;20032;-58
2021/04/07 10:11:39;;;;;;;4.32;2.08;;;3.50;99.90;;;;;;5033116;28;20403;-57
2021/04/07 10:14:06;;;;;;;2.72;2.10;;;3.70;99.90;;;;;;5031266;28;20033;-56
2021/04/07 10:16:34;;;;;;;2.13;1.80;;;3.90;99.90;;;;;;5039393;28;20044;-57
2021/04/07 10:19:00;;;;;;;4.55;2.08;;;4.10;99.90;;;;;;5044009;28;20029;-57
2021/04/07 10:21:27;;;;;;;1.60;1.50;;;4.10;99.90;;;;;;5045870;28;20035;-56
2021/04/07 10:23:56;;;;;;;3.95;1.63;;;4.20;99.90;;;;;;5054295;28;20016;-58
2021/04/07 10:26:21;;;;;;;3.28;2.25;;;4.20;99.90;;;;;;5050847;28;20107;-59
2021/04/07 10:28:59;;;;;;;4.43;2.47;;;4.20;99.90;;;;;;5039138;28;20459;-57
2021/04/07 10:31:25;;;;;;;3.08;1.60;;;4.50;99.90;;;;;;5047740;28;20037;-54
2021/04/07 10:34:09;;;;;;;5.03;2.45;;;4.80;99.90;;;;;;5042313;28;20021;-59
2021/04/07 10:36:39;;;;;;;4.30;2.00;;;4.80;99.90;;;;;;5041868;28;20024;-57
2021/04/07 10:39:16;;;;;;;2.67;1.70;;;4.70;99.90;;;;;;5033840;28;20049;-58
2021/04/07 10:41:47;;;;;;;6.68;1.80;;;4.70;99.90;;;;;;5051430;28;20025;-58
2021/04/07 10:44:29;;;;;;;5.50;1.98;;;4.60;99.90;;;;;;5051695;28;20025;-58
2021/04/07 10:46:55;;;;;;;3.03;1.75;;;4.50;99.90;;;;;;5051255;28;20028;-54
2021/04/07 10:49:24;;;;;;;3.40;1.80;;;4.30;99.90;;;;;;5050840;28;20056;-58
2021/04/07 10:52:02;;;;;;;2.92;1.88;;;4.20;99.90;;;;;;5051591;28;20031;-56
2021/04/07 10:54:28;;;;;;;2.10;1.90;;;4.20;99.90;;;;;;5050223;28;20038;-58
2021/04/07 10:57:03;;;;;;;2.63;1.70;;;4.10;99.90;;;;;;5051707;28;20430;-58
2021/04/07 10:59:30;;;;;;;3.10;1.95;;;4.20;99.90;;;;;;5051257;28;20475;-56
2021/04/07 11:01:56;;;;;;;1.88;1.50;;;4.20;99.90;;;;;;5054906;28;20021;-59
2021/04/07 11:04:21;;;;;;;4.00;1.95;;;4.20;99.90;;;;;;5051425;28;20034;-55
2021/04/07 11:06:56;;;;;;;4.10;2.15;;;4.30;99.90;;;;;;5051559;28;20032;-58
2021/04/07 11:09:25;;;;;;;3.75;2.22;;;4.30;99.90;;;;;;5051061;28;20376;-57
2021/04/07 11:11:51;;;;;;;3.97;2.35;;;4.30;99.90;;;;;;5052604;28;20013;-57
2021/04/07 11:14:17;;;;;;;3.53;2.30;;;4.40;99.90;;;;;;5051299;28;20061;-57
2021/04/07 11:16:43;;;;;;;3.63;2.33;;;4.40;99.90;;;;;;5050981;28;20576;-57
2021/04/07 11:19:16;;;;;;;4.25;2.60;;;4.50;99.90;;;;;;5050737;28;20510;-57
2021/04/07 11:21:43;;;;;;;2.97;2.30;;;4.60;99.90;;;;;;5037885;28;20013;-57
2021/04/07 11:24:09;;;;;;;5.97;2.45;;;4.60;99.90;;;;;;5033830;28;20032;-55
2021/04/07 11:26:34;;;;;;;4.30;2.30;;;4.60;99.90;;;;;;5037566;28;20495;-56
2021/04/07 11:29:00;;;;;;;4.25;2.58;;;4.50;99.90;;;;;;5050804;28;20123;-56
2021/04/07 11:31:29;;;;;;;2.67;2.10;;;4.40;99.90;;;;;;5050192;28;20064;-58
2021/04/07 11:33:59;;;;;;;4.40;2.17;;;4.40;99.90;;;;;;5036875;28;20017;-55
2021/04/07 11:39:09;;;;;;;4.13;2.10;;;4.20;99.90;;;;;;5039917;28;20079;-54
2021/04/07 11:46:44;;;;;;;2.55;2.33;;;4.10;99.90;;;;;;5037417;28;20025;-56
2021/04/07 11:49:10;;;;;;;5.03;2.35;;;4.20;99.90;;;;;;5030816;28;20034;-56
2021/04/07 11:51:38;;;;;;;3.65;2.42;;;4.30;99.90;;;;;;5041546;28;20695;-58
2021/04/07 11:54:06;;;;;;;4.00;2.40;;;4.30;99.90;;;;;;5044316;28;20025;-57
2021/04/07 11:56:31;;;;;;;5.20;1.90;;;4.30;99.90;;;;;;5039113;28;20483;-55
2021/04/07 11:58:57;;;;;;;4.03;1.92;;;4.30;99.90;;;;;;5039943;28;20022;-53
2021/04/07 12:01:23;;;;;;;4.00;2.03;;;4.30;99.90;;;;;;5038243;28;20018;-54
2021/04/07 12:03:49;;;;;;;2.53;1.65;;;4.20;99.90;;;;;;5037570;28;20071;-53
2021/04/07 12:06:15;;;;;;;1.50;1.38;;;4.20;99.90;;;;;;5040351;28;20083;-54
2021/04/07 12:08:40;;;;;;;1.92;0.98;;;4.20;99.90;;;;;;5033825;28;20029;-56
2021/04/07 12:11:06;;;;;;;2.22;1.30;;;4.20;99.90;;;;;;5030904;28;20043;-55
2021/04/07 12:13:31;;;;;;;2.00;1.40;;;4.20;99.90;;;;;;5034020;28;20025;-54
2021/04/07 12:15:57;;;;;;;1.40;1.30;;;4.20;99.90;;;;;;5034851;28;20025;-56
2021/04/07 12:18:23;;;;;;;2.55;1.27;;;4.20;99.90;;;;;;5040748;28;20068;-54
2021/04/07 12:20:50;;;;;;;3.63;1.42;;;4.20;99.90;;;;;;5043969;28;20097;-55
2021/04/07 12:23:15;;;;;;;2.22;1.45;;;4.30;99.90;;;;;;5038315;28;20029;-54
2021/04/07 12:25:42;;;;;;;3.15;1.40;;;4.40;99.90;;;;;;5038184;28;20424;-55
2021/04/07 12:28:09;;;;;;;2.25;1.10;;;4.50;99.90;;;;;;5037142;28;20059;-55
2021/04/07 12:30:47;;;;;;;2.03;1.50;;;4.50;99.90;;;;;;5035080;28;20033;-53
2021/04/07 12:33:20;;;;;;;3.15;2.05;;;4.50;99.90;;;;;;5069950;22;20060;-55
2021/04/07 12:35:48;;;;;;;4.93;1.65;;;4.50;99.90;;;;;;5058969;28;20039;-55
2021/04/07 12:38:13;;;;;;;2.05;1.50;;;4.40;99.90;;;;;;5060790;28;20127;-56
2021/04/07 12:40:40;;;;;;;3.30;1.33;;;4.40;99.90;;;;;;5054841;28;20129;-56
2021/04/07 12:43:06;;;;;;;3.88;1.20;;;4.30;99.90;;;;;;5063887;28;20534;-57
2021/04/07 12:45:31;;;;;;;3.25;1.15;;;4.10;99.90;;;;;;5054808;28;20155;-57
2021/04/07 12:47:57;;;;;;;3.05;0.75;;;4.10;99.90;;;;;;5057968;28;20163;-56
2021/04/07 12:50:23;;;;;;;2.33;1.05;;;4.10;99.90;;;;;;5037133;28;20033;-55
2021/04/07 12:52:48;;;;;;;2.90;0.73;;;4.10;99.90;;;;;;5055982;28;20556;-52
2021/04/07 12:55:14;;;;;;;2.95;0.73;;;4.10;99.90;;;;;;5051357;28;20033;-57
2021/04/07 12:57:39;;;;;;;4.00;0.85;;;4.10;99.90;;;;;;5053134;28;20025;-56
2021/04/07 13:00:06;;;;;;;3.00;1.10;;;4.10;99.90;;;;;;5053632;28;20540;-54
2021/04/07 13:02:31;;;;;;;2.45;0.95;;;4.20;99.90;;;;;;5060174;28;20046;-56